createdAt,value
2023-02-28T00:00:22.218Z,71.08
2023-02-28T00:02:50.180Z,71.28
2023-02-28T00:05:21.481Z,71.43
2023-02-28T00:07:49.910Z,71.25
2023-02-28T00:10:21.684Z,71.11
2023-02-28T00:12:49.940Z,72.14
2023-02-28T00:15:18.150Z,72.25
2023-02-28T00:17:46.274Z,72.19
2023-02-28T00:20:15.370Z,72.50
2023-02-28T00:22:46.568Z,71.82
2023-02-28T00:25:16.964Z,71.92
2023-02-28T00:27:45.422Z,71.87
2023-02-28T00:30:14.781Z,71.91
2023-02-28T00:32:42.558Z,71.34
2023-02-28T00:35:11.360Z,71.54
2023-02-28T00:37:39.610Z,71.38
2023-02-28T00:40:10.960Z,71.52
2023-02-28T00:42:39.058Z,71.63
2023-02-28T00:45:08.575Z,71.48
2023-02-28T00:47:36.645Z,72.38
2023-02-28T00:50:05.268Z,72.10
2023-02-28T00:52:33.109Z,72.90
2023-02-28T00:55:00.949Z,72.83
2023-02-28T00:57:30.052Z,72.84
2023-02-28T00:59:57.840Z,73.21
2023-02-28T01:02:25.636Z,73.03
2023-02-28T01:04:53.690Z,74.20
2023-02-28T01:07:21.459Z,74.20
2023-02-28T01:09:49.242Z,73.62
2023-02-28T01:12:17.645Z,73.85
2023-02-28T01:14:46.779Z,73.64
2023-02-28T01:17:14.696Z,74.58
2023-02-28T01:19:42.460Z,74.36
2023-02-28T01:22:10.370Z,74.94
2023-02-28T01:24:38.676Z,74.42
2023-02-28T01:27:06.484Z,74.41
2023-02-28T01:29:34.438Z,74.29
2023-02-28T01:32:03.598Z,74.28
2023-02-28T01:34:31.389Z,74.11
2023-02-28T01:36:59.885Z,73.87
2023-02-28T01:39:27.718Z,73.97
2023-02-28T01:41:55.527Z,74.11
2023-02-28T01:44:59.733Z,73.38
2023-02-28T01:47:32.213Z,73.13
2023-02-28T01:49:59.908Z,72.99
2023-02-28T01:52:28.515Z,72.90
2023-02-28T01:54:58.207Z,72.74
2023-02-28T01:57:28.145Z,72.54
2023-02-28T02:00:00.507Z,73.14
2023-02-28T02:02:31.121Z,73.38
2023-02-28T02:05:03.031Z,73.36
2023-02-28T02:07:32.424Z,73.10
2023-02-28T02:10:06.527Z,72.98
2023-02-28T02:12:45.564Z,73.27
2023-02-28T02:15:16.762Z,72.98
2023-02-28T02:17:48.011Z,72.77
2023-02-28T02:20:39.519Z,73.22
2023-02-28T02:23:30.913Z,72.82
2023-02-28T02:26:03.409Z,72.87
2023-02-28T02:28:49.346Z,72.54
2023-02-28T02:31:53.039Z,72.51
2023-02-28T02:34:44.772Z,72.92
2023-02-28T02:37:19.636Z,72.63
2023-02-28T02:39:52.774Z,72.57
2023-02-28T02:42:24.501Z,73.17
2023-02-28T02:44:57.155Z,73.52
2023-02-28T02:47:26.815Z,73.15
2023-02-28T02:49:57.969Z,73.67
2023-02-28T02:52:30.279Z,73.60
2023-02-28T02:54:58.853Z,73.65
2023-02-28T02:57:29.934Z,73.48
2023-02-28T02:59:59.127Z,73.31
2023-02-28T03:02:28.016Z,72.99
2023-02-28T03:05:01.895Z,73.03
2023-02-28T03:07:30.076Z,73.52
2023-02-28T03:09:59.130Z,73.63
2023-02-28T03:12:47.618Z,73.69
2023-02-28T03:15:19.975Z,73.79
2023-02-28T03:17:57.066Z,73.64
2023-02-28T03:20:35.016Z,73.51
2023-02-28T03:23:09.880Z,73.20
2023-02-28T03:25:41.980Z,73.07
2023-02-28T03:28:12.826Z,73.23
2023-02-28T03:30:44.637Z,73.47
2023-02-28T03:33:15.494Z,73.85
2023-02-28T03:35:47.619Z,74.22
2023-02-28T03:38:19.131Z,74.13
2023-02-28T03:40:50.364Z,73.85
2023-02-28T03:43:21.929Z,73.88
2023-02-28T03:45:52.633Z,74.08
2023-02-28T03:48:24.267Z,73.94
2023-02-28T03:50:56.322Z,73.86
2023-02-28T03:53:27.772Z,74.27
2023-02-28T03:55:58.687Z,74.30
2023-02-28T03:58:31.495Z,74.23
2023-02-28T04:01:09.205Z,74.21
2023-02-28T04:03:37.866Z,73.73
2023-02-28T04:06:08.324Z,73.64
2023-02-28T04:08:36.129Z,73.26
2023-02-28T04:11:07.120Z,73.50
2023-02-28T04:13:35.044Z,74.06
2023-02-28T04:16:02.910Z,73.71
2023-02-28T04:18:30.701Z,73.58
2023-02-28T04:21:02.279Z,73.67
2023-02-28T04:23:32.649Z,73.38
2023-02-28T04:26:00.460Z,73.19
2023-02-28T04:28:28.254Z,73.30
2023-02-28T04:30:57.484Z,73.01
2023-02-28T04:33:25.236Z,72.27
2023-02-28T04:36:01.132Z,72.89
2023-02-28T04:38:29.009Z,73.57
2023-02-28T04:41:00.462Z,74.30
2023-02-28T04:43:29.308Z,73.98
2023-02-28T04:45:57.613Z,73.38
2023-02-28T04:48:25.798Z,73.58
2023-02-28T04:50:53.844Z,73.38
2023-02-28T04:53:22.314Z,73.22
2023-02-28T04:55:50.440Z,73.13
2023-02-28T04:58:19.610Z,73.29
2023-02-28T05:00:47.365Z,73.22
2023-02-28T05:03:15.169Z,73.18
2023-02-28T05:05:42.962Z,73.53
2023-02-28T05:08:11.413Z,73.65
2023-02-28T05:10:39.198Z,73.45
2023-02-28T05:13:07.288Z,73.29
2023-02-28T05:15:36.450Z,73.36
2023-02-28T05:18:04.267Z,72.82
2023-02-28T05:20:32.237Z,72.93
2023-02-28T05:23:00.699Z,74.29
2023-02-28T05:25:28.726Z,74.62
2023-02-28T05:27:56.544Z,74.64
2023-02-28T05:30:24.609Z,74.90
2023-02-28T05:32:53.894Z,75.11
2023-02-28T05:35:21.689Z,75.12
2023-02-28T05:37:49.517Z,75.10
2023-02-28T05:40:21.531Z,75.29
2023-02-28T05:42:49.631Z,75.29
2023-02-28T05:45:17.987Z,75.11
2023-02-28T05:47:45.941Z,74.91
2023-02-28T05:50:15.342Z,74.29
2023-02-28T05:52:43.083Z,74.41
2023-02-28T05:55:12.511Z,73.86
2023-02-28T05:57:40.389Z,73.78
2023-02-28T06:00:09.678Z,73.60
2023-02-28T06:02:37.581Z,73.53
2023-02-28T06:05:05.615Z,73.43
2023-02-28T06:07:35.050Z,73.52
2023-02-28T06:10:02.856Z,73.47
2023-02-28T06:12:30.770Z,73.56
2023-02-28T06:14:58.686Z,73.58
2023-02-28T06:17:26.456Z,73.30
2023-02-28T06:19:54.530Z,73.27
2023-02-28T06:22:22.837Z,73.22
2023-02-28T06:24:53.656Z,72.79
2023-02-28T06:27:21.605Z,73.62
2023-02-28T06:29:49.586Z,73.42
2023-02-28T06:32:21.039Z,73.48
2023-02-28T06:34:48.943Z,73.27
2023-02-28T06:37:16.889Z,73.29
2023-02-28T06:39:44.827Z,73.42
2023-02-28T06:42:14.022Z,73.22
2023-02-28T06:44:41.846Z,72.38
2023-02-28T06:47:09.648Z,71.59
2023-02-28T06:49:39.994Z,70.55
2023-02-28T06:52:07.892Z,70.44
2023-02-28T06:54:35.885Z,70.35
2023-02-28T06:57:03.869Z,70.18
2023-02-28T06:59:33.467Z,70.29
2023-02-28T07:02:01.595Z,69.72
2023-02-28T07:04:29.563Z,69.67
2023-02-28T07:06:58.234Z,69.15
2023-02-28T07:09:30.775Z,68.99
2023-02-28T07:11:58.692Z,68.48
2023-02-28T07:14:26.947Z,67.97
2023-02-28T07:16:56.366Z,67.62
2023-02-28T07:19:24.233Z,66.52
2023-02-28T07:21:52.390Z,66.18
2023-02-28T07:24:26.816Z,64.96
2023-02-28T07:26:55.016Z,64.89
2023-02-28T07:29:23.085Z,63.94
2023-02-28T07:31:51.568Z,62.57
2023-02-28T07:34:20.830Z,62.95
2023-02-28T07:36:48.633Z,62.88
2023-02-28T07:39:16.364Z,62.76
2023-02-28T07:41:45.221Z,60.68
2023-02-28T07:44:13.344Z,58.26
2023-02-28T07:46:44.274Z,53.84
2023-02-28T07:49:12.108Z,51.08
2023-02-28T07:51:41.270Z,47.27
2023-02-28T07:54:09.248Z,45.07
2023-02-28T07:56:37.394Z,40.52
2023-02-28T07:59:05.142Z,38.27
2023-02-28T08:01:33.455Z,37.78
2023-02-28T08:04:01.339Z,35.17
2023-02-28T08:06:29.375Z,36.16
2023-02-28T08:08:59.790Z,36.98
2023-02-28T08:32:36.791Z,47.73
2023-02-28T08:35:05.132Z,47.47
2023-02-28T08:53:42.342Z,46.41
2023-02-28T08:56:11.763Z,46.83
2023-02-28T08:58:40.076Z,46.59
2023-02-28T09:01:13.332Z,46.06
2023-02-28T09:03:42.299Z,44.98
2023-02-28T09:06:11.227Z,45.37
2023-02-28T09:08:39.108Z,44.70
2023-02-28T09:11:08.542Z,45.98
2023-02-28T09:13:36.713Z,45.98
2023-02-28T09:16:06.790Z,46.63
2023-02-28T09:18:35.919Z,44.60
2023-02-28T09:21:05.827Z,45.10
2023-02-28T09:23:33.645Z,44.25
2023-02-28T09:26:01.426Z,45.06
2023-02-28T09:28:30.821Z,44.90
2023-02-28T09:30:59.893Z,45.61
2023-02-28T09:33:28.067Z,45.85
2023-02-28T09:36:03.398Z,45.49
2023-02-28T09:38:31.251Z,44.27
2023-02-28T09:41:01.456Z,42.73
2023-02-28T09:43:35.506Z,42.92
2023-02-28T09:46:11.820Z,43.42
2023-02-28T09:48:43.776Z,42.57
2023-02-28T09:51:18.207Z,42.03
2023-02-28T09:53:50.396Z,41.51
2023-02-28T09:56:27.446Z,40.88
2023-02-28T09:58:59.565Z,40.68
2023-02-28T10:01:32.799Z,40.99
2023-02-28T10:04:02.803Z,42.40
2023-02-28T10:06:32.294Z,41.20
2023-02-28T10:09:03.094Z,41.04
2023-02-28T10:11:33.071Z,40.91
2023-02-28T10:14:06.700Z,40.36
2023-02-28T10:16:37.667Z,41.02
2023-02-28T10:19:07.579Z,40.31
2023-02-28T10:21:38.846Z,40.74
2023-02-28T10:24:17.299Z,40.88
2023-02-28T10:26:47.607Z,39.91
2023-02-28T10:29:17.111Z,40.02
2023-02-28T10:31:45.096Z,39.08
2023-02-28T10:34:14.503Z,39.49
2023-02-28T10:36:45.008Z,40.22
2023-02-28T10:39:37.412Z,40.50
2023-02-28T10:42:05.541Z,40.42
2023-02-28T10:44:34.740Z,40.34
2023-02-28T10:47:02.966Z,39.98
2023-02-28T10:49:31.097Z,39.85
2023-02-28T10:52:00.201Z,39.96
2023-02-28T10:54:32.524Z,40.51
2023-02-28T10:57:10.748Z,39.37
2023-02-28T10:59:39.884Z,38.81
2023-02-28T11:05:26.049Z,39.59
2023-02-28T11:07:54.567Z,39.42
2023-02-28T11:10:24.892Z,38.43
2023-02-28T11:12:58.138Z,38.87
2023-02-28T11:15:29.740Z,39.22
2023-02-28T11:17:58.986Z,38.55
2023-02-28T11:20:29.432Z,38.88
2023-02-28T11:22:57.804Z,38.55
2023-02-28T11:25:28.093Z,38.24
2023-02-28T11:27:57.384Z,38.11
2023-02-28T11:30:29.413Z,37.32
2023-02-28T11:32:57.415Z,37.42
2023-02-28T11:35:27.297Z,36.95
2023-02-28T11:37:55.393Z,38.18
2023-02-28T11:40:29.956Z,37.36
2023-02-28T11:43:06.631Z,37.88
2023-02-28T11:46:01.012Z,36.95
2023-02-28T11:48:33.417Z,37.21
2023-02-28T11:51:11.054Z,36.89
2023-02-28T11:53:53.920Z,36.89
2023-02-28T11:56:28.331Z,35.60
2023-02-28T11:59:06.300Z,36.63
2023-02-28T12:01:43.977Z,36.63
2023-02-28T12:04:23.541Z,35.53
2023-02-28T12:06:58.473Z,35.28
2023-02-28T12:09:44.499Z,35.62
2023-02-28T12:12:25.559Z,36.21
2023-02-28T12:15:08.042Z,36.11
2023-02-28T12:17:41.046Z,35.89
2023-02-28T12:20:16.273Z,36.04
2023-02-28T12:22:53.104Z,36.43
2023-02-28T12:25:33.453Z,36.58
2023-02-28T12:28:02.260Z,35.76
2023-02-28T12:30:33.714Z,35.56
2023-02-28T12:33:06.754Z,35.63
2023-02-28T12:35:37.101Z,36.60
2023-02-28T12:38:08.237Z,36.14
2023-02-28T12:40:45.167Z,35.97
2023-02-28T12:43:15.286Z,36.35
2023-02-28T12:45:45.685Z,35.90
2023-02-28T12:48:17.560Z,35.58
2023-02-28T12:50:45.698Z,36.76
2023-02-28T12:53:17.702Z,36.79
2023-02-28T12:55:50.845Z,36.19
2023-02-28T12:58:26.089Z,36.14
2023-02-28T13:01:28.991Z,35.05
2023-02-28T13:04:26.535Z,35.87
2023-02-28T13:07:09.926Z,35.96
2023-02-28T13:09:37.822Z,35.93
2023-02-28T13:12:14.813Z,35.23
2023-02-28T13:14:42.924Z,35.22
2023-02-28T13:17:14.847Z,35.50
2023-02-28T13:19:46.495Z,35.10
2023-02-28T13:22:39.888Z,33.19
2023-02-28T13:25:52.209Z,30.93
2023-02-28T13:29:07.595Z,29.49
2023-02-28T13:32:20.311Z,28.38
2023-02-28T13:35:43.031Z,27.89
2023-02-28T13:38:19.237Z,28.09
2023-02-28T13:40:47.298Z,27.40
2023-02-28T13:43:25.288Z,27.81
2023-02-28T13:46:14.756Z,27.44
2023-02-28T13:48:43.118Z,27.55
2023-02-28T13:51:34.036Z,27.57
2023-02-28T13:54:06.468Z,28.21
2023-02-28T13:56:37.072Z,27.50
2023-02-28T13:59:16.154Z,28.57
2023-02-28T14:01:53.076Z,29.25
2023-02-28T14:04:52.612Z,28.28
2023-02-28T14:07:30.522Z,28.10
2023-02-28T14:10:06.221Z,28.37
2023-02-28T14:12:56.994Z,29.35
2023-02-28T14:15:41.077Z,29.38
2023-02-28T14:18:18.581Z,28.65
2023-02-28T14:20:48.702Z,28.95
2023-02-28T14:23:26.778Z,29.40
2023-02-28T14:26:03.422Z,29.42
2023-02-28T14:28:45.504Z,29.47
2023-02-28T14:31:16.400Z,28.84
2023-02-28T14:34:00.832Z,28.84
2023-02-28T14:36:30.317Z,29.08
2023-02-28T14:39:02.294Z,29.56
2023-02-28T14:41:32.199Z,29.89
2023-02-28T14:44:01.367Z,29.95
2023-02-28T14:46:33.101Z,30.02
2023-02-28T14:49:00.984Z,30.54
2023-02-28T14:51:28.800Z,30.07
2023-02-28T14:54:02.954Z,30.03
2023-02-28T14:56:37.959Z,30.64
2023-02-28T14:59:06.549Z,30.97
2023-02-28T15:01:35.133Z,30.71
2023-02-28T15:04:05.691Z,30.86
2023-02-28T15:06:35.138Z,31.29
2023-02-28T15:09:12.390Z,31.22
2023-02-28T15:11:41.242Z,31.00
2023-02-28T15:14:09.201Z,31.55
2023-02-28T15:16:40.006Z,32.02
2023-02-28T15:19:09.234Z,32.67
2023-02-28T15:21:38.967Z,32.97
2023-02-28T15:24:13.375Z,33.02
2023-02-28T15:26:42.708Z,33.35
2023-02-28T15:29:14.570Z,33.71
2023-02-28T15:31:56.632Z,34.69
2023-02-28T15:34:36.971Z,34.72
2023-02-28T15:37:29.483Z,35.41
2023-02-28T15:40:01.060Z,35.60
2023-02-28T15:42:32.472Z,36.07
2023-02-28T15:45:00.970Z,36.42
2023-02-28T15:47:30.103Z,36.60
2023-02-28T15:50:00.054Z,37.35
2023-02-28T15:52:32.981Z,37.40
2023-02-28T15:55:10.813Z,37.98
2023-02-28T15:57:41.032Z,37.95
2023-02-28T16:00:13.652Z,38.41
2023-02-28T16:02:42.356Z,39.20
2023-02-28T16:05:28.901Z,39.42
2023-02-28T16:07:58.158Z,39.61
2023-02-28T16:10:29.348Z,39.66
2023-02-28T16:13:00.567Z,41.11
2023-02-28T16:15:30.972Z,41.45
2023-02-28T16:18:00.348Z,41.65
2023-02-28T16:20:30.615Z,41.84
2023-02-28T16:23:02.856Z,43.55
2023-02-28T16:25:35.879Z,44.48
2023-02-28T16:33:41.977Z,45.27
2023-02-28T16:36:12.515Z,45.93
2023-02-28T16:38:44.974Z,46.88
2023-02-28T16:41:19.852Z,47.59
2023-02-28T16:43:49.741Z,47.90
2023-02-28T16:46:18.719Z,48.66
2023-02-28T16:48:49.328Z,49.79
2023-02-28T16:51:17.912Z,50.04
2023-02-28T16:53:46.268Z,49.54
2023-02-28T16:56:22.935Z,49.60
2023-02-28T16:58:52.135Z,50.33
2023-02-28T17:01:22.671Z,49.87
2023-02-28T17:03:51.153Z,50.10
2023-02-28T17:06:22.848Z,50.43
2023-02-28T17:08:50.764Z,51.65
2023-02-28T17:11:21.578Z,51.55
2023-02-28T17:13:49.521Z,51.67
2023-02-28T17:16:24.006Z,51.98
2023-02-28T17:18:52.253Z,52.29
2023-02-28T17:21:20.309Z,52.31
2023-02-28T17:23:49.832Z,52.99
2023-02-28T17:26:22.114Z,53.02
2023-02-28T17:28:52.693Z,53.56
2023-02-28T17:31:20.624Z,53.85
2023-02-28T17:33:48.434Z,55.07
2023-02-28T17:36:20.337Z,54.16
2023-02-28T17:38:48.450Z,55.04
2023-02-28T17:41:16.986Z,55.75
2023-02-28T17:43:46.593Z,56.31
2023-02-28T17:46:21.945Z,56.08
2023-02-28T17:48:49.885Z,57.15
2023-02-28T17:51:21.100Z,56.73
2023-02-28T17:53:50.281Z,57.68
2023-02-28T17:56:25.028Z,57.96
2023-02-28T17:58:55.881Z,57.80
2023-02-28T18:01:26.106Z,57.64
2023-02-28T18:03:54.734Z,57.68
2023-02-28T18:06:25.601Z,57.83
2023-02-28T18:08:53.650Z,58.08
2023-02-28T18:11:25.911Z,58.97
2023-02-28T18:13:56.769Z,59.15
2023-02-28T18:16:25.637Z,59.40
2023-02-28T18:18:53.453Z,60.18
2023-02-28T18:21:22.149Z,61.66
2023-02-28T18:23:50.280Z,61.82
2023-02-28T18:26:19.960Z,62.17
2023-02-28T18:28:49.172Z,62.19
2023-02-28T18:31:20.496Z,62.67
2023-02-28T18:33:51.069Z,62.46
2023-02-28T18:36:20.770Z,62.18
2023-02-28T18:38:50.525Z,62.60
2023-02-28T18:41:22.132Z,61.77
2023-02-28T18:43:52.102Z,62.80
2023-02-28T18:46:24.692Z,63.02
2023-02-28T18:48:52.713Z,63.85
2023-02-28T18:51:22.487Z,63.31
2023-02-28T18:53:51.511Z,63.21
2023-02-28T18:56:21.165Z,63.95
2023-02-28T18:58:52.855Z,64.99
2023-02-28T19:01:24.495Z,65.22
2023-02-28T19:03:52.885Z,65.01
2023-02-28T19:06:23.292Z,65.42
2023-02-28T19:08:54.933Z,65.81
2023-02-28T19:11:25.487Z,65.62
2023-02-28T19:13:54.126Z,65.41
2023-02-28T19:16:23.935Z,64.90
2023-02-28T19:18:53.162Z,64.68
2023-02-28T19:21:23.095Z,64.27
2023-02-28T19:23:51.259Z,64.10
2023-02-28T19:26:21.920Z,64.48
2023-02-28T19:28:50.433Z,64.60
2023-02-28T19:31:19.705Z,64.48
2023-02-28T19:33:51.641Z,64.63
2023-02-28T19:36:20.182Z,65.15
2023-02-28T19:38:49.008Z,65.60
2023-02-28T19:41:18.158Z,65.28
2023-02-28T19:43:47.226Z,66.47
2023-02-28T19:46:15.614Z,66.66
2023-02-28T19:48:45.257Z,67.20
2023-02-28T19:53:47.048Z,66.56
2023-02-28T19:56:15.101Z,66.19
2023-02-28T19:58:42.930Z,66.46
2023-02-28T20:01:17.380Z,67.85
2023-02-28T20:03:50.185Z,68.51
2023-02-28T20:06:24.288Z,68.83
2023-02-28T20:08:56.645Z,69.03
2023-02-28T20:11:28.620Z,68.81
2023-02-28T20:13:57.133Z,68.28
2023-02-28T20:16:33.781Z,67.88
2023-02-28T20:19:02.135Z,67.23
2023-02-28T20:21:31.534Z,67.43
2023-02-28T20:23:59.645Z,68.25
2023-02-28T20:26:28.058Z,68.13
2023-02-28T20:28:56.926Z,69.05
2023-02-28T20:31:25.740Z,69.21
2023-02-28T20:33:54.405Z,69.70
2023-02-28T20:36:23.436Z,70.20
2023-02-28T20:38:54.948Z,70.31
2023-02-28T20:41:23.668Z,69.42
2023-02-28T20:43:55.906Z,69.07
2023-02-28T20:46:23.802Z,68.84
2023-02-28T20:48:51.822Z,68.76
2023-02-28T20:51:19.974Z,69.26
2023-02-28T20:53:48.232Z,68.89
2023-02-28T20:56:18.800Z,68.98
2023-02-28T20:58:48.471Z,69.73
2023-02-28T21:01:19.338Z,70.63
2023-02-28T21:03:49.198Z,70.94
2023-02-28T21:06:20.869Z,70.98
2023-02-28T21:08:49.214Z,70.87
2023-02-28T21:11:19.648Z,70.03
2023-02-28T21:13:48.834Z,70.52
2023-02-28T21:16:18.197Z,70.19
2023-02-28T21:18:46.144Z,70.52
2023-02-28T21:21:15.982Z,69.84
2023-02-28T21:23:45.192Z,69.56
2023-02-28T21:26:14.992Z,69.77
2023-02-28T21:28:44.941Z,70.31
2023-02-28T21:31:14.288Z,69.99
2023-02-28T21:33:42.314Z,69.49
2023-02-28T21:36:11.507Z,69.40
2023-02-28T21:38:40.027Z,69.16
2023-02-28T21:41:09.106Z,69.15
2023-02-28T21:43:36.982Z,70.13
2023-02-28T21:46:08.383Z,70.12
2023-02-28T21:48:36.611Z,69.73
2023-02-28T21:51:06.607Z,69.54
2023-02-28T21:53:35.674Z,69.75
2023-02-28T21:56:04.761Z,70.12
2023-02-28T21:58:33.856Z,70.29
2023-02-28T22:01:07.380Z,70.50
2023-02-28T22:03:35.909Z,70.88
2023-02-28T22:06:12.874Z,71.57
2023-02-28T22:08:40.946Z,72.07
2023-02-28T22:11:09.650Z,72.68
2023-02-28T22:13:38.107Z,73.20
2023-02-28T22:16:09.002Z,73.39
2023-02-28T22:18:37.387Z,73.45
2023-02-28T22:21:06.153Z,73.57
2023-02-28T22:23:34.673Z,73.71
2023-02-28T22:26:03.256Z,73.55
2023-02-28T22:28:32.289Z,73.48
2023-02-28T22:31:00.846Z,73.06
2023-02-28T22:33:30.167Z,72.43
2023-02-28T22:35:57.912Z,72.33
2023-02-28T22:38:27.277Z,72.33
2023-02-28T22:40:57.969Z,72.08
2023-02-28T22:43:25.732Z,72.97
2023-02-28T22:45:53.535Z,72.97
2023-02-28T22:48:21.339Z,72.94
2023-02-28T22:50:50.538Z,73.35
2023-02-28T22:53:18.358Z,72.89
2023-02-28T22:55:46.147Z,72.53
2023-02-28T22:58:13.902Z,72.34
2023-02-28T23:00:42.166Z,71.68
2023-02-28T23:03:09.938Z,71.39
2023-02-28T23:05:38.142Z,71.34
2023-02-28T23:08:07.544Z,70.96
2023-02-28T23:10:35.323Z,70.99
2023-02-28T23:13:03.111Z,70.91
2023-02-28T23:15:30.879Z,70.50
2023-02-28T23:17:58.658Z,70.56
2023-02-28T23:20:26.658Z,70.39
2023-02-28T23:22:55.430Z,70.53
2023-02-28T23:25:24.576Z,70.95
2023-02-28T23:27:52.380Z,70.76
2023-02-28T23:30:20.555Z,70.11
2023-02-28T23:32:48.467Z,70.72
2023-02-28T23:35:16.426Z,70.56
2023-02-28T23:37:44.246Z,70.47
2023-02-28T23:40:13.222Z,70.95
2023-02-28T23:42:42.338Z,70.83
2023-02-28T23:45:11.494Z,71.51
2023-02-28T23:47:39.283Z,71.26
2023-02-28T23:50:07.471Z,71.38
2023-02-28T23:52:35.349Z,72.07
2023-02-28T23:55:03.200Z,71.82
2023-02-28T23:57:31.029Z,71.54
